Woodbury, North Dakota
Current Conditions -  °F | °C
As of 4:56 AM on Sunday 26 Oct 2014 (Local Time) from KJMS Reporting Station
Clear Clear  
Wind Chill: 33°   Ceiling: Unl
Heat Index: 39°   Visibility: 10mi
Dew Point: 30°   Wind: 8mph
Humidity: 70%   Direction: 130°SE
Pressure: 29.85"   Gusts: NA
Location:  46.8494°N, 98.7424°W
Report Text: KJMS 260956Z AUTO 13007KT 10SM CLR 04/M01 A2985 RMK AO2 SLP114 T00391011
Loading
Personal Weather Stations






























Interactive Weather Map
Tropical Storm Tracking
New forecast layout! Learn more

10-Day Weather Forecast

Advertisements
Track Severe Weather on mobile